Time;durP1;ratioP1;P1;durP2;ratioP2;P2;SDS_P1;SDS_P2;PMS_P1;PMS_P2;Temp;Humidity;BMP_temperature;BMP_pressure;BME280_temperature;BME280_humidity;BME280_pressure;Samples;Min_cycle;Max_cycle;Signal;HPM_P1;HPM_P2
2024/01/24 00:01:58;;;;;;;2.90;1.20;;;9.80;85.60;;;;;;6158220;23;20444;-78
2024/01/24 00:04:24;;;;;;;2.65;1.20;;;9.80;85.70;;;;;;6158270;23;20005;-77
2024/01/24 00:06:50;;;;;;;3.35;1.20;;;9.70;85.60;;;;;;6157796;23;20037;-79
2024/01/24 00:09:15;;;;;;;2.28;1.20;;;9.80;85.60;;;;;;6158665;23;20016;-78
2024/01/24 00:11:41;;;;;;;2.35;1.15;;;9.80;85.70;;;;;;6158012;23;20096;-78
2024/01/24 00:14:06;;;;;;;2.72;1.30;;;9.80;85.70;;;;;;6157963;23;20012;-78
2024/01/24 00:16:32;;;;;;;2.55;1.50;;;9.80;85.70;;;;;;6157717;23;20019;-78
2024/01/24 00:18:57;;;;;;;1.40;1.20;;;9.80;85.70;;;;;;6157836;23;20071;-78
2024/01/24 00:21:23;;;;;;;2.30;1.40;;;9.80;85.70;;;;;;6157686;23;20032;-78
2024/01/24 00:23:48;;;;;;;2.72;1.50;;;9.80;85.70;;;;;;6157863;23;20007;-77
2024/01/24 00:26:14;;;;;;;2.30;1.33;;;9.80;85.70;;;;;;6157592;23;20001;-78
2024/01/24 00:28:39;;;;;;;1.85;1.27;;;9.80;85.80;;;;;;6158138;23;20001;-78
2024/01/24 00:31:05;;;;;;;3.42;1.60;;;9.70;85.70;;;;;;6157414;23;20013;-77
2024/01/24 00:33:30;;;;;;;2.28;1.40;;;9.80;85.80;;;;;;6157551;23;20017;-78
2024/01/24 00:35:56;;;;;;;2.30;1.40;;;9.80;85.80;;;;;;6157713;23;20099;-78
2024/01/24 00:38:22;;;;;;;2.67;1.40;;;9.80;86.30;;;;;;6157836;23;20005;-79
2024/01/24 00:40:48;;;;;;;2.08;1.48;;;9.80;85.80;;;;;;6157967;23;20432;-77
2024/01/24 00:43:13;;;;;;;2.88;1.63;;;9.80;85.90;;;;;;6157541;23;20055;-77
2024/01/24 00:45:39;;;;;;;2.83;1.58;;;9.80;85.90;;;;;;6157755;23;20072;-77
2024/01/24 00:48:06;;;;;;;2.75;1.33;;;9.80;86.00;;;;;;6157820;23;20008;-77
2024/01/24 00:50:32;;;;;;;2.30;1.45;;;9.80;85.90;;;;;;6157796;23;20009;-77
2024/01/24 00:53:06;;;;;;;3.08;1.67;;;9.80;86.00;;;;;;6183783;23;20120;-77
2024/01/24 00:55:32;;;;;;;2.92;1.55;;;9.80;85.90;;;;;;6158061;23;20040;-78
2024/01/24 00:57:58;;;;;;;2.58;1.45;;;9.80;85.90;;;;;;6157650;23;20328;-77
2024/01/24 01:00:24;;;;;;;2.40;1.40;;;9.80;85.90;;;;;;6157579;23;20028;-78
2024/01/24 01:02:50;;;;;;;2.60;1.52;;;9.80;85.90;;;;;;6157785;23;20486;-77
2024/01/24 01:05:15;;;;;;;3.22;1.50;;;9.80;85.90;;;;;;6157749;23;20005;-77
2024/01/24 01:07:41;;;;;;;3.13;1.50;;;9.80;85.90;;;;;;6158861;23;20044;-77
2024/01/24 01:10:09;;;;;;;2.17;1.50;;;9.70;85.90;;;;;;6159668;23;20357;-79
2024/01/24 01:12:35;;;;;;;2.50;1.50;;;9.80;85.90;;;;;;6159415;23;20064;-78
2024/01/24 01:15:00;;;;;;;2.10;1.52;;;9.80;85.90;;;;;;6159482;23;20001;-79
2024/01/24 01:17:26;;;;;;;2.53;1.70;;;9.80;86.00;;;;;;6159203;23;20005;-78
2024/01/24 01:19:51;;;;;;;2.97;1.50;;;9.80;85.90;;;;;;6159616;23;19997;-78
2024/01/24 01:22:17;;;;;;;2.25;1.58;;;9.80;85.90;;;;;;6185700;23;20012;-77
2024/01/24 01:24:42;;;;;;;2.67;1.60;;;9.80;86.00;;;;;;6185823;23;20088;-78
2024/01/24 01:27:08;;;;;;;2.90;1.58;;;9.80;85.90;;;;;;6185673;23;20008;-77
2024/01/24 01:29:34;;;;;;;3.13;1.80;;;9.80;85.90;;;;;;6159381;23;20012;-79
2024/01/24 01:32:00;;;;;;;3.00;1.65;;;9.80;85.90;;;;;;6158998;23;20390;-77
2024/01/24 01:34:25;;;;;;;2.95;1.55;;;9.80;85.90;;;;;;6159308;23;20060;-77
2024/01/24 01:36:51;;;;;;;3.13;1.63;;;9.80;85.90;;;;;;6158833;23;20001;-79
2024/01/24 01:39:16;;;;;;;2.47;1.75;;;9.80;86.00;;;;;;6159136;23;20084;-77
2024/01/24 01:41:45;;;;;;;2.80;1.60;;;9.80;86.00;;;;;;6159278;23;20587;-79
2024/01/24 01:44:11;;;;;;;2.42;1.50;;;9.80;85.90;;;;;;6158811;23;20336;-77
2024/01/24 01:46:38;;;;;;;3.17;1.75;;;9.80;86.00;;;;;;6158875;23;20009;-78
2024/01/24 01:49:04;;;;;;;3.63;1.88;;;9.90;86.00;;;;;;6159517;23;20005;-77
2024/01/24 01:51:30;;;;;;;3.03;1.70;;;9.80;86.00;;;;;;6159443;23;20036;-78
2024/01/24 01:53:57;;;;;;;3.50;1.75;;;9.80;85.90;;;;;;6159142;23;20399;-78
2024/01/24 01:56:24;;;;;;;2.95;1.75;;;9.80;85.90;;;;;;6158879;23;20005;-77
2024/01/24 01:58:50;;;;;;;3.90;2.15;;;9.80;85.90;;;;;;6159325;23;20001;-78
2024/01/24 02:01:16;;;;;;;3.03;1.77;;;9.90;86.50;;;;;;6185411;23;20382;-77
2024/01/24 02:03:43;;;;;;;3.03;1.75;;;9.80;85.90;;;;;;6159006;23;20044;-77
2024/01/24 02:06:09;;;;;;;2.70;1.60;;;9.80;85.90;;;;;;6158481;23;20016;-78
2024/01/24 02:08:36;;;;;;;5.68;2.00;;;9.80;85.90;;;;;;6185470;23;20021;-77
2024/01/24 02:11:02;;;;;;;3.47;1.90;;;9.80;85.90;;;;;;6158801;23;20084;-77
2024/01/24 02:13:31;;;;;;;3.78;1.88;;;9.80;85.90;;;;;;6185130;23;20020;-77
2024/01/24 02:15:58;;;;;;;3.22;1.63;;;9.90;86.00;;;;;;6159062;23;20092;-78
2024/01/24 02:18:24;;;;;;;3.45;2.05;;;9.80;85.90;;;;;;6158538;23;20395;-77
2024/01/24 02:20:50;;;;;;;3.35;2.00;;;9.80;85.90;;;;;;6158964;23;20140;-78
2024/01/24 02:23:18;;;;;;;3.97;1.95;;;9.80;85.90;;;;;;6159002;23;20076;-78
2024/01/24 02:25:43;;;;;;;3.50;1.77;;;9.80;85.90;;;;;;6158877;23;20340;-77
2024/01/24 02:28:09;;;;;;;3.35;1.90;;;9.80;85.90;;;;;;6158732;23;20005;-78
2024/01/24 02:30:34;;;;;;;2.83;1.90;;;9.80;85.80;;;;;;6185261;23;20059;-79
2024/01/24 02:33:00;;;;;;;2.83;1.83;;;9.80;85.80;;;;;;6159084;23;20314;-78
2024/01/24 02:35:27;;;;;;;3.55;1.85;;;9.80;85.80;;;;;;6185483;23;20040;-78
2024/01/24 02:37:53;;;;;;;2.85;1.70;;;9.80;85.80;;;;;;6158223;23;20514;-77
2024/01/24 02:40:18;;;;;;;3.35;1.90;;;9.80;85.80;;;;;;6185037;23;20006;-78
2024/01/24 02:42:44;;;;;;;3.28;1.90;;;9.80;85.80;;;;;;6158560;23;20091;-77
2024/01/24 02:45:09;;;;;;;3.83;1.90;;;9.90;85.80;;;;;;6158626;23;20412;-77
2024/01/24 02:47:35;;;;;;;2.70;1.95;;;9.80;85.80;;;;;;6158305;23;20016;-78
2024/01/24 02:50:02;;;;;;;3.65;1.90;;;9.90;85.80;;;;;;6158747;23;20032;-78
2024/01/24 02:52:28;;;;;;;4.13;1.90;;;9.90;85.80;;;;;;6158532;23;20404;-77
2024/01/24 02:54:53;;;;;;;3.65;2.00;;;9.80;85.80;;;;;;6158174;23;20037;-77
2024/01/24 02:57:19;;;;;;;3.33;1.90;;;9.80;85.80;;;;;;6158170;23;20005;-78
2024/01/24 02:59:44;;;;;;;3.55;2.08;;;9.80;85.80;;;;;;6158620;23;20339;-78
2024/01/24 03:02:10;;;;;;;3.20;1.90;;;9.80;85.80;;;;;;6158371;23;19998;-78
2024/01/24 03:04:36;;;;;;;4.88;2.00;;;9.80;85.80;;;;;;6158464;23;20084;-78
2024/01/24 03:07:02;;;;;;;3.50;2.00;;;9.80;85.80;;;;;;6158245;23;20063;-78
2024/01/24 03:09:28;;;;;;;3.60;2.00;;;9.90;85.80;;;;;;6158575;23;20008;-78
2024/01/24 03:11:53;;;;;;;3.42;2.05;;;9.80;85.70;;;;;;6158512;23;20001;-77
2024/01/24 03:14:19;;;;;;;3.25;1.90;;;9.90;85.80;;;;;;6158472;23;20005;-78
2024/01/24 03:16:45;;;;;;;4.43;2.00;;;9.90;85.80;;;;;;6158160;23;20020;-76
2024/01/24 03:19:10;;;;;;;2.95;2.00;;;9.80;85.70;;;;;;6158666;23;20006;-78
2024/01/24 03:21:36;;;;;;;2.88;1.90;;;9.90;85.80;;;;;;6186523;23;20035;-77
2024/01/24 03:24:01;;;;;;;3.13;1.77;;;9.90;85.80;;;;;;6158781;23;20008;-78
2024/01/24 03:26:27;;;;;;;3.45;2.10;;;9.90;85.80;;;;;;6158810;23;20028;-79
2024/01/24 03:28:52;;;;;;;2.85;1.80;;;9.90;85.80;;;;;;6159060;23;20056;-78
2024/01/24 03:31:18;;;;;;;3.03;1.80;;;9.90;85.80;;;;;;6158106;23;20051;-78
2024/01/24 03:33:43;;;;;;;3.33;1.90;;;9.80;85.80;;;;;;6185120;23;19998;-79
2024/01/24 03:36:09;;;;;;;3.88;1.88;;;9.90;85.80;;;;;;6157172;23;20001;-79
2024/01/24 03:38:34;;;;;;;3.35;1.95;;;9.90;85.80;;;;;;6184557;23;20016;-79
2024/01/24 03:41:00;;;;;;;4.00;2.08;;;9.90;85.80;;;;;;6185019;23;20008;-79
2024/01/24 03:43:26;;;;;;;2.80;1.73;;;9.90;85.80;;;;;;6158711;23;20502;-79
2024/01/24 03:45:51;;;;;;;3.25;1.80;;;9.90;85.80;;;;;;6158161;23;19997;-78
2024/01/24 03:48:17;;;;;;;2.75;1.83;;;9.90;85.80;;;;;;6158496;23;20001;-78
2024/01/24 03:50:42;;;;;;;3.10;2.00;;;9.80;85.80;;;;;;6158383;23;20435;-79
2024/01/24 03:53:08;;;;;;;2.85;1.90;;;9.90;85.80;;;;;;6158265;23;20036;-79
2024/01/24 03:55:33;;;;;;;3.85;2.00;;;9.90;85.80;;;;;;6158445;23;20460;-78
2024/01/24 03:57:59;;;;;;;2.85;1.80;;;9.90;85.80;;;;;;6158681;23;20012;-78
2024/01/24 04:00:24;;;;;;;3.30;1.90;;;9.90;85.80;;;;;;6158474;23;20001;-79
2024/01/24 04:02:50;;;;;;;3.58;2.00;;;9.90;85.80;;;;;;6158389;23;20486;-77
2024/01/24 04:05:16;;;;;;;3.00;1.60;;;9.90;85.80;;;;;;6184915;23;20005;-78
2024/01/24 04:07:41;;;;;;;3.45;1.80;;;9.90;85.80;;;;;;6184246;23;20471;-78
2024/01/24 04:10:08;;;;;;;2.58;1.60;;;9.90;85.80;;;;;;6184576;23;20005;-77
2024/01/24 04:12:34;;;;;;;2.10;1.50;;;9.90;85.80;;;;;;6158072;23;20005;-77
2024/01/24 04:14:59;;;;;;;2.42;1.70;;;9.90;85.80;;;;;;6158110;23;20044;-79
2024/01/24 04:17:25;;;;;;;2.85;1.65;;;9.90;85.80;;;;;;6158226;23;20466;-79
2024/01/24 04:19:50;;;;;;;2.78;1.60;;;9.90;85.80;;;;;;6158045;23;20009;-78
2024/01/24 04:22:16;;;;;;;3.15;2.00;;;9.90;85.90;;;;;;6158273;23;19998;-78
2024/01/24 04:24:42;;;;;;;2.97;1.80;;;9.90;85.80;;;;;;6158355;23;20001;-78
2024/01/24 04:27:08;;;;;;;2.97;1.67;;;9.90;85.80;;;;;;6157134;23;20004;-79
2024/01/24 04:29:35;;;;;;;2.85;1.80;;;9.90;85.80;;;;;;6165849;23;20570;-80
2024/01/24 04:32:01;;;;;;;2.90;1.60;;;9.90;85.80;;;;;;6160854;23;20013;-78
2024/01/24 04:34:26;;;;;;;2.45;1.70;;;9.90;85.80;;;;;;6180896;23;20433;-78
2024/01/24 04:36:55;;;;;;;2.72;1.70;;;9.90;85.80;;;;;;6154289;23;20015;-77
2024/01/24 04:39:21;;;;;;;2.85;1.60;;;9.90;85.80;;;;;;6182025;23;20053;-78
2024/01/24 04:41:47;;;;;;;1.95;1.60;;;9.90;85.80;;;;;;6155344;23;20001;-78
2024/01/24 04:44:13;;;;;;;2.53;1.75;;;9.90;85.80;;;;;;6157203;23;20436;-78
2024/01/24 04:46:39;;;;;;;2.58;1.60;;;9.90;85.80;;;;;;6156561;23;20008;-78
2024/01/24 04:49:04;;;;;;;2.30;1.45;;;9.80;85.80;;;;;;6157334;23;20008;-78
2024/01/24 04:51:30;;;;;;;2.97;1.70;;;9.90;85.90;;;;;;6159691;23;20048;-77
2024/01/24 04:53:55;;;;;;;2.70;1.58;;;9.80;85.80;;;;;;6160962;23;20080;-79
2024/01/24 04:56:21;;;;;;;2.17;1.50;;;9.90;85.90;;;;;;6158277;23;20001;-79
2024/01/24 04:58:47;;;;;;;2.17;1.48;;;9.90;85.90;;;;;;6184063;23;20001;-78
2024/01/24 05:01:12;;;;;;;2.50;1.45;;;9.90;85.90;;;;;;6158062;23;20356;-79
2024/01/24 05:03:38;;;;;;;3.25;1.60;;;9.90;86.10;;;;;;6157605;23;19993;-78
2024/01/24 05:06:04;;;;;;;2.95;1.63;;;9.90;86.10;;;;;;6161221;23;20304;-80
2024/01/24 05:08:31;;;;;;;2.33;1.42;;;9.90;86.00;;;;;;6179599;23;20004;-79
2024/01/24 05:11:00;;;;;;;3.33;1.52;;;9.90;86.00;;;;;;6177311;23;20450;-80
2024/01/24 05:13:26;;;;;;;1.95;1.42;;;9.90;86.00;;;;;;6158382;23;20013;-83
2024/01/24 05:16:05;;;;;;;1.85;1.30;;;9.90;86.00;;;;;;6182118;23;20013;-83
2024/01/24 05:49:58;;;;;;;2.85;1.65;;;9.90;86.10;;;;;;6153967;23;20029;-81
2024/01/24 05:52:45;;;;;;;1.45;1.20;;;9.90;86.10;;;;;;6158201;23;20044;-82
2024/01/24 05:55:21;;;;;;;2.50;1.30;;;9.90;86.10;;;;;;6181965;23;19985;-81
2024/01/24 05:57:57;;;;;;;2.63;1.20;;;9.90;86.30;;;;;;6214011;23;20001;-81
2024/01/24 06:00:33;;;;;;;1.80;1.25;;;9.90;86.30;;;;;;6164039;23;20020;-82
2024/01/24 06:03:03;;;;;;;2.55;1.30;;;9.90;86.30;;;;;;6211019;23;20016;-81
2024/01/24 06:06:03;;;;;;;2.30;1.30;;;9.90;86.30;;;;;;6162885;23;20028;-82
2024/01/24 06:08:46;;;;;;;1.92;1.35;;;9.90;86.20;;;;;;6209275;23;20161;-81
2024/01/24 06:11:14;;;;;;;3.30;1.20;;;9.80;86.30;;;;;;6213134;23;20048;-81
2024/01/24 06:13:42;;;;;;;2.72;1.15;;;10.00;86.40;;;;;;6187151;23;19993;-80
2024/01/24 06:18:43;;;;;;;4.95;1.50;;;9.90;86.40;;;;;;6212679;23;20005;-81
2024/01/24 06:21:11;;;;;;;4.28;1.35;;;9.90;86.50;;;;;;6208224;23;19997;-83
2024/01/24 06:23:38;;;;;;;1.83;1.10;;;9.90;86.50;;;;;;6202718;23;20017;-81
2024/01/24 06:26:07;;;;;;;3.13;1.10;;;10.00;86.60;;;;;;6182168;23;19990;-81
2024/01/24 06:28:37;;;;;;;4.70;1.50;;;9.90;86.60;;;;;;6178375;23;20020;-83
2024/01/24 06:31:03;;;;;;;2.10;1.10;;;9.90;86.50;;;;;;6183747;23;20010;-82
2024/01/24 06:33:32;;;;;;;2.92;1.13;;;10.00;86.50;;;;;;6157363;23;20043;-85
2024/01/24 06:36:00;;;;;;;2.30;1.10;;;10.40;86.60;;;;;;6174228;23;20017;-82
2024/01/24 06:38:26;;;;;;;3.47;1.27;;;9.90;86.40;;;;;;6188170;23;20028;-83
2024/01/24 06:40:57;;;;;;;11.73;1.90;;;10.10;86.50;;;;;;6185760;23;20005;-82
2024/01/24 06:43:26;;;;;;;8.23;1.38;;;9.90;86.50;;;;;;6185376;23;20048;-81
2024/01/24 06:45:54;;;;;;;6.10;1.67;;;9.90;86.50;;;;;;6187786;23;20016;-81
2024/01/24 06:48:25;;;;;;;9.30;1.95;;;9.90;86.60;;;;;;6187573;23;20061;-82
2024/01/24 06:50:54;;;;;;;12.25;1.80;;;9.90;86.70;;;;;;6187599;23;19989;-81
2024/01/24 06:53:22;;;;;;;15.02;2.40;;;9.90;86.70;;;;;;6187196;23;19993;-82
2024/01/24 06:55:50;;;;;;;10.45;1.50;;;9.90;86.70;;;;;;6213310;23;19992;-81
2024/01/24 06:58:18;;;;;;;14.95;2.42;;;9.90;86.70;;;;;;6162718;23;19997;-80
2024/01/24 07:00:45;;;;;;;6.07;1.73;;;9.90;86.60;;;;;;6211497;23;20016;-83
2024/01/24 07:03:15;;;;;;;10.25;2.05;;;10.00;86.70;;;;;;6138109;23;19993;-82
2024/01/24 07:05:45;;;;;;;9.00;2.00;;;10.00;86.70;;;;;;6188462;23;19989;-82
2024/01/24 07:08:13;;;;;;;11.20;1.85;;;9.90;86.60;;;;;;6163684;23;19993;-82
2024/01/24 07:10:42;;;;;;;7.78;1.40;;;9.90;86.60;;;;;;6163699;23;19985;-81
2024/01/24 07:13:11;;;;;;;6.78;1.58;;;9.80;86.70;;;;;;6213661;23;20012;-81
2024/01/24 07:15:53;;;;;;;11.77;1.85;;;9.90;86.70;;;;;;6161959;23;20004;-81
2024/01/24 07:18:23;;;;;;;9.82;1.70;;;10.00;86.70;;;;;;6209173;23;20000;-82
2024/01/24 07:20:50;;;;;;;9.02;1.60;;;9.90;86.60;;;;;;6163559;23;19985;-83
2024/01/24 07:23:19;;;;;;;8.77;1.92;;;9.90;86.60;;;;;;6212756;23;19993;-81
2024/01/24 07:25:49;;;;;;;10.23;2.03;;;9.90;86.60;;;;;;6187659;23;20016;-81
2024/01/24 07:28:18;;;;;;;6.28;1.60;;;9.80;86.50;;;;;;6187970;23;19989;-81
2024/01/24 07:30:45;;;;;;;6.18;1.55;;;9.90;86.60;;;;;;6188154;23;19989;-81
2024/01/24 07:33:12;;;;;;;6.93;1.67;;;10.00;86.60;;;;;;6187237;23;19996;-83
2024/01/24 07:35:41;;;;;;;9.80;2.00;;;10.10;86.60;;;;;;6211138;23;20061;-81
2024/01/24 07:38:09;;;;;;;6.82;1.65;;;10.60;86.90;;;;;;6161650;23;20008;-81
2024/01/24 07:40:46;;;;;;;7.05;1.38;;;9.90;86.50;;;;;;6211920;23;20006;-81
2024/01/24 07:43:20;;;;;;;8.45;1.77;;;9.90;86.60;;;;;;6189704;23;20009;-82
2024/01/24 07:45:50;;;;;;;6.85;1.58;;;9.90;86.50;;;;;;6210624;23;19985;-81
2024/01/24 07:48:17;;;;;;;7.47;1.80;;;10.10;86.70;;;;;;6186803;23;19989;-81
2024/01/24 07:50:45;;;;;;;6.60;1.60;;;10.10;86.70;;;;;;6163430;23;19989;-81
2024/01/24 07:53:12;;;;;;;9.45;1.67;;;10.00;86.60;;;;;;6162448;23;19993;-81
2024/01/24 07:55:39;;;;;;;7.70;1.50;;;9.90;86.50;;;;;;6162978;23;20036;-81
2024/01/24 07:58:08;;;;;;;6.85;1.60;;;9.90;86.50;;;;;;6211405;23;20008;-85
2024/01/24 08:00:38;;;;;;;5.22;1.40;;;10.00;86.50;;;;;;6187356;23;19989;-82
2024/01/24 08:03:10;;;;;;;6.00;1.60;;;10.80;87.00;;;;;;6162912;23;20021;-83
2024/01/24 08:05:38;;;;;;;6.90;1.40;;;10.10;86.50;;;;;;6211328;23;19989;-82
2024/01/24 08:08:04;;;;;;;6.85;1.80;;;9.80;86.30;;;;;;6186901;23;19989;-83
2024/01/24 08:10:31;;;;;;;6.65;1.60;;;9.90;86.40;;;;;;6186261;23;19992;-84
2024/01/24 08:12:59;;;;;;;6.10;1.48;;;10.00;86.50;;;;;;6162762;23;19997;-81
2024/01/24 08:15:32;;;;;;;5.57;1.58;;;10.00;86.50;;;;;;6209096;23;19989;-83
2024/01/24 08:18:04;;;;;;;6.35;1.30;;;9.90;86.40;;;;;;6187545;23;20065;-83
2024/01/24 08:20:33;;;;;;;7.28;1.67;;;10.00;86.50;;;;;;6187760;23;19991;-81
2024/01/24 08:23:21;;;;;;;7.30;1.80;;;10.00;86.50;;;;;;6212523;23;19993;-84
2024/01/24 08:25:49;;;;;;;8.05;1.40;;;9.90;86.40;;;;;;6210354;23;20012;-80
2024/01/24 08:28:18;;;;;;;6.68;1.40;;;10.10;86.50;;;;;;6161958;23;20020;-81
2024/01/24 08:30:46;;;;;;;6.10;1.60;;;10.00;86.50;;;;;;6213157;23;19993;-81
2024/01/24 08:33:17;;;;;;;5.13;1.58;;;10.10;86.50;;;;;;6187660;23;20024;-82
2024/01/24 08:35:43;;;;;;;6.80;1.55;;;10.00;86.40;;;;;;6163126;23;20012;-81
2024/01/24 08:38:11;;;;;;;6.07;1.45;;;9.90;86.40;;;;;;6185497;23;20001;-82
2024/01/24 08:40:39;;;;;;;6.03;1.60;;;10.00;86.50;;;;;;6186714;23;19992;-81
2024/01/24 08:43:10;;;;;;;4.82;1.40;;;9.90;86.40;;;;;;6187220;23;20007;-84
2024/01/24 08:45:38;;;;;;;7.23;1.53;;;10.50;86.70;;;;;;6186331;23;20075;-84
2024/01/24 08:48:10;;;;;;;6.05;1.30;;;9.90;86.40;;;;;;6207636;23;20244;-81
2024/01/24 08:50:40;;;;;;;5.43;1.25;;;10.00;86.50;;;;;;6183538;23;20024;-81
2024/01/24 08:53:08;;;;;;;4.82;1.30;;;10.00;86.50;;;;;;6187340;23;20012;-81
2024/01/24 08:55:35;;;;;;;7.78;2.05;;;10.00;86.50;;;;;;6162728;23;20013;-82
2024/01/24 08:58:04;;;;;;;8.07;1.67;;;10.00;86.50;;;;;;6210723;23;20019;-83
2024/01/24 09:00:31;;;;;;;5.88;1.45;;;9.90;86.40;;;;;;6187129;23;19985;-82
2024/01/24 09:02:59;;;;;;;6.70;1.50;;;10.00;86.50;;;;;;6186260;23;19989;-83
2024/01/24 09:05:27;;;;;;;5.68;1.52;;;10.00;86.40;;;;;;6186566;23;19993;-83
2024/01/24 09:07:56;;;;;;;6.50;1.40;;;10.00;86.50;;;;;;6187368;23;20048;-83
2024/01/24 09:10:25;;;;;;;6.43;1.70;;;10.00;86.40;;;;;;6187404;23;19989;-81
2024/01/24 09:12:55;;;;;;;7.45;2.00;;;10.00;86.50;;;;;;6186444;23;19997;-81
2024/01/24 09:15:31;;;;;;;5.97;1.50;;;9.90;86.40;;;;;;6212690;23;20041;-81
2024/01/24 09:18:06;;;;;;;8.07;2.08;;;10.00;86.50;;;;;;6187735;23;20060;-84
2024/01/24 09:20:36;;;;;;;5.93;1.67;;;9.80;86.30;;;;;;6163993;23;20036;-82
2024/01/24 09:23:05;;;;;;;6.45;1.50;;;10.00;86.40;;;;;;6211311;23;19994;-82
2024/01/24 09:25:32;;;;;;;6.32;1.40;;;10.10;86.50;;;;;;6162815;23;20017;-83
2024/01/24 09:28:02;;;;;;;5.72;1.48;;;10.00;86.40;;;;;;6202217;23;20020;-82
2024/01/24 09:30:31;;;;;;;6.38;1.90;;;10.00;86.50;;;;;;6165222;23;19985;-82
2024/01/24 09:32:57;;;;;;;7.97;1.80;;;10.00;86.50;;;;;;6188405;23;20062;-81
2024/01/24 09:35:32;;;;;;;7.60;1.98;;;10.00;86.50;;;;;;6188879;23;19981;-81
2024/01/24 09:38:01;;;;;;;9.70;1.92;;;10.10;86.50;;;;;;6166081;23;20001;-81
2024/01/24 09:40:30;;;;;;;6.38;1.60;;;9.90;86.40;;;;;;6214412;23;20041;-82
2024/01/24 09:43:03;;;;;;;7.35;1.88;;;10.00;86.40;;;;;;6214626;23;20057;-82
2024/01/24 09:45:31;;;;;;;7.82;1.80;;;10.10;86.50;;;;;;6164323;23;20001;-82
2024/01/24 09:48:01;;;;;;;9.95;2.00;;;10.00;86.40;;;;;;6164980;23;19990;-84
2024/01/24 09:50:33;;;;;;;6.90;1.90;;;10.00;86.50;;;;;;6188809;23;19989;-81
2024/01/24 09:53:07;;;;;;;6.45;2.03;;;10.10;86.50;;;;;;6207239;23;19993;-81
2024/01/24 09:55:40;;;;;;;5.80;1.52;;;10.00;86.40;;;;;;6213104;23;19989;-81
2024/01/24 09:58:09;;;;;;;7.55;2.00;;;10.00;86.40;;;;;;6202116;23;20001;-81
2024/01/24 10:00:36;;;;;;;6.97;1.70;;;10.00;86.40;;;;;;6188128;23;20094;-81
2024/01/24 10:03:03;;;;;;;8.30;1.88;;;9.90;86.30;;;;;;6189416;23;20001;-81
2024/01/24 10:05:32;;;;;;;8.27;1.85;;;10.10;86.40;;;;;;6187701;23;19985;-81
2024/01/24 10:08:00;;;;;;;8.65;1.90;;;9.90;86.30;;;;;;6214689;23;20020;-81
2024/01/24 10:10:26;;;;;;;7.13;2.20;;;10.00;86.30;;;;;;6163339;23;20073;-82
2024/01/24 10:12:53;;;;;;;7.97;2.15;;;10.10;86.40;;;;;;6188172;23;19993;-82
2024/01/24 10:15:22;;;;;;;8.43;1.63;;;10.20;86.40;;;;;;6187842;23;19989;-82
2024/01/24 10:17:48;;;;;;;7.90;1.83;;;10.10;86.40;;;;;;6187861;23;20024;-81
2024/01/24 10:20:20;;;;;;;5.43;1.65;;;10.10;86.40;;;;;;6212619;23;20001;-81
2024/01/24 10:22:52;;;;;;;9.30;2.00;;;9.90;86.20;;;;;;6201944;23;20004;-81
2024/01/24 10:25:20;;;;;;;12.15;2.92;;;10.00;86.30;;;;;;6188111;23;19996;-81
2024/01/24 10:27:49;;;;;;;7.90;1.67;;;10.00;86.30;;;;;;6187101;23;19997;-81
2024/01/24 10:30:19;;;;;;;7.50;1.70;;;10.10;86.40;;;;;;6187736;23;19989;-81
2024/01/24 10:32:49;;;;;;;6.95;1.83;;;10.20;86.40;;;;;;6163980;23;20013;-81
2024/01/24 10:35:17;;;;;;;7.30;1.90;;;10.00;86.90;;;;;;6163297;23;19985;-83
2024/01/24 10:37:45;;;;;;;7.00;1.70;;;10.10;86.40;;;;;;6187071;23;20001;-82
2024/01/24 10:40:18;;;;;;;8.98;1.55;;;10.10;86.40;;;;;;6187943;23;19994;-82
2024/01/24 10:42:48;;;;;;;7.30;2.03;;;9.90;86.30;;;;;;6212005;23;19993;-81
2024/01/24 10:45:26;;;;;;;9.57;2.03;;;10.10;86.40;;;;;;6205536;23;19989;-83
2024/01/24 10:47:54;;;;;;;7.20;1.85;;;10.10;86.40;;;;;;6210094;23;20058;-83
2024/01/24 10:50:25;;;;;;;6.38;1.90;;;10.10;86.40;;;;;;6213043;23;19996;-81
2024/01/24 10:52:56;;;;;;;8.57;2.40;;;10.10;86.40;;;;;;6188147;23;19985;-81
2024/01/24 10:55:24;;;;;;;7.95;1.70;;;10.30;86.50;;;;;;6186993;23;20029;-81
2024/01/24 10:57:54;;;;;;;8.00;1.80;;;10.00;86.30;;;;;;6209037;23;20007;-83
2024/01/24 11:00:22;;;;;;;7.07;1.77;;;10.10;86.30;;;;;;6163025;23;19989;-83
2024/01/24 11:02:54;;;;;;;6.63;1.98;;;10.10;86.40;;;;;;6188260;23;20012;-83
2024/01/24 11:05:42;;;;;;;8.88;1.75;;;10.10;86.30;;;;;;6210556;23;19994;-81
2024/01/24 11:08:31;;;;;;;9.85;2.38;;;10.10;86.30;;;;;;6186786;23;20012;-82
2024/01/24 11:11:04;;;;;;;8.75;1.95;;;10.10;86.30;;;;;;6183487;23;20021;-81
2024/01/24 11:13:36;;;;;;;7.15;1.75;;;10.10;86.20;;;;;;6187036;23;19985;-82
2024/01/24 11:16:32;;;;;;;6.53;1.52;;;10.10;86.30;;;;;;6187835;23;20012;-82
2024/01/24 11:19:20;;;;;;;8.10;1.92;;;10.10;86.30;;;;;;6183306;23;20003;-83
2024/01/24 11:21:47;;;;;;;7.55;1.90;;;10.10;86.30;;;;;;6187520;23;19989;-81
2024/01/24 11:24:37;;;;;;;7.78;1.80;;;10.10;86.30;;;;;;6187091;23;20213;-82
2024/01/24 11:27:05;;;;;;;6.45;1.77;;;10.10;86.30;;;;;;6194816;23;20005;-83
2024/01/24 11:29:36;;;;;;;7.93;2.05;;;10.10;86.30;;;;;;6157989;23;20056;-81
2024/01/24 11:32:08;;;;;;;8.75;2.40;;;10.10;86.30;;;;;;6211869;23;20004;-81
2024/01/24 11:34:40;;;;;;;9.45;2.05;;;10.10;86.20;;;;;;6140554;23;20616;-81
2024/01/24 11:37:09;;;;;;;7.68;2.20;;;10.10;86.30;;;;;;6164040;23;20008;-84
2024/01/24 11:39:40;;;;;;;7.15;1.83;;;10.10;86.30;;;;;;6185037;23;20021;-82
2024/01/24 11:42:54;;;;;;;7.30;1.95;;;10.10;86.20;;;;;;6187149;23;19993;-80
2024/01/24 11:45:24;;;;;;;9.27;1.90;;;10.10;86.20;;;;;;6123668;23;20020;-83
2024/01/24 11:47:53;;;;;;;8.18;1.77;;;10.00;86.20;;;;;;6123185;23;20021;-81
2024/01/24 11:50:23;;;;;;;9.43;2.15;;;10.10;86.20;;;;;;6099314;23;20426;-82
2024/01/24 11:53:05;;;;;;;6.63;1.88;;;10.10;86.20;;;;;;6151065;23;19989;-81
2024/01/24 11:55:38;;;;;;;10.48;2.22;;;10.00;86.20;;;;;;6211554;23;20013;-83
2024/01/24 11:58:07;;;;;;;8.75;1.90;;;10.10;86.30;;;;;;6158721;23;20000;-81
2024/01/24 12:00:34;;;;;;;9.98;2.20;;;10.10;86.30;;;;;;6163023;23;20237;-82
2024/01/24 12:03:04;;;;;;;7.90;1.70;;;10.10;86.30;;;;;;6187302;23;20017;-84
2024/01/24 12:05:42;;;;;;;6.83;2.40;;;10.20;86.30;;;;;;6208151;23;19985;-81
2024/01/24 12:08:11;;;;;;;8.48;2.50;;;10.00;86.20;;;;;;6187245;23;20012;-84
2024/01/24 12:10:40;;;;;;;7.50;1.92;;;10.10;86.30;;;;;;6163249;23;19989;-81
2024/01/24 12:13:10;;;;;;;7.78;2.10;;;10.10;86.30;;;;;;6187630;23;19989;-85
2024/01/24 12:15:44;;;;;;;6.22;2.03;;;10.10;86.30;;;;;;6210760;23;19985;-82
2024/01/24 12:18:14;;;;;;;7.80;1.95;;;10.00;86.30;;;;;;6163343;23;20001;-83
2024/01/24 12:20:49;;;;;;;7.00;2.03;;;10.10;86.30;;;;;;6212341;23;20009;-83
2024/01/24 12:23:20;;;;;;;7.20;1.95;;;10.00;86.30;;;;;;6187400;23;20040;-81
2024/01/24 12:25:55;;;;;;;10.13;2.20;;;10.20;86.40;;;;;;6213137;23;19989;-81
2024/01/24 12:28:27;;;;;;;6.88;1.90;;;10.10;86.30;;;;;;6187366;23;19998;-81
2024/01/24 12:30:57;;;;;;;6.80;1.92;;;10.00;86.30;;;;;;6182635;23;19989;-82
2024/01/24 12:33:26;;;;;;;7.68;2.00;;;10.00;86.20;;;;;;6187488;23;20012;-81
2024/01/24 12:35:53;;;;;;;8.02;2.10;;;10.10;86.30;;;;;;6210995;23;19989;-82
2024/01/24 12:38:23;;;;;;;7.47;1.85;;;10.20;86.30;;;;;;6186990;23;20004;-82
2024/01/24 12:40:55;;;;;;;9.45;2.00;;;9.90;86.10;;;;;;6212924;23;19993;-81
2024/01/24 12:43:27;;;;;;;8.55;2.17;;;10.10;86.30;;;;;;6163098;23;20053;-81
2024/01/24 12:45:55;;;;;;;7.82;1.75;;;10.10;86.40;;;;;;6213023;23;20016;-81
2024/01/24 12:48:21;;;;;;;7.93;2.25;;;10.10;86.30;;;;;;6162877;23;20016;-82
2024/01/24 12:50:54;;;;;;;6.28;1.77;;;10.10;86.30;;;;;;6212773;23;20000;-82
2024/01/24 12:53:24;;;;;;;7.55;1.90;;;10.00;86.30;;;;;;6187361;23;20013;-84
2024/01/24 12:55:57;;;;;;;7.53;1.80;;;10.10;86.30;;;;;;6189428;23;20024;-81
2024/01/24 12:58:30;;;;;;;8.47;2.00;;;10.10;86.30;;;;;;6211018;23;20475;-84
2024/01/24 13:00:59;;;;;;;9.95;2.28;;;10.10;86.40;;;;;;6187738;23;19985;-81
2024/01/24 13:03:26;;;;;;;9.27;2.20;;;10.20;86.40;;;;;;6210549;23;20235;-84
2024/01/24 13:05:54;;;;;;;7.30;1.88;;;10.10;86.30;;;;;;6188961;23;19989;-81
2024/01/24 13:08:23;;;;;;;7.85;1.85;;;10.20;86.40;;;;;;6164379;23;19993;-82
2024/01/24 13:10:52;;;;;;;6.80;1.80;;;10.10;86.40;;;;;;6165315;23;20001;-83
2024/01/24 13:13:21;;;;;;;7.60;1.83;;;10.20;86.40;;;;;;6188606;23;20017;-82
2024/01/24 13:15:52;;;;;;;7.13;2.08;;;10.10;86.30;;;;;;6165162;23;19997;-81
2024/01/24 13:18:22;;;;;;;7.80;1.63;;;10.30;86.40;;;;;;6189098;23;19997;-82
2024/01/24 13:20:51;;;;;;;7.13;2.13;;;10.00;86.30;;;;;;6135101;23;19989;-81
2024/01/24 13:23:18;;;;;;;7.72;2.28;;;10.10;86.30;;;;;;6184587;23;19990;-81
2024/01/24 13:25:45;;;;;;;8.77;2.00;;;10.10;86.30;;;;;;6188045;23;20025;-81
2024/01/24 13:28:19;;;;;;;7.80;1.80;;;10.10;86.30;;;;;;6164980;23;20033;-84
2024/01/24 13:30:50;;;;;;;7.57;1.85;;;10.10;86.30;;;;;;6213359;23;20263;-81
2024/01/24 13:33:17;;;;;;;4.80;1.52;;;10.00;86.30;;;;;;6140315;23;19989;-82
2024/01/24 13:35:51;;;;;;;8.15;1.90;;;10.20;86.40;;;;;;6162158;23;20039;-81